createdAt,value
2017-07-06T00:04:26.189Z,1012.10
2017-07-06T00:09:22.183Z,1012.07
2017-07-06T00:14:17.989Z,1012.06
2017-07-06T00:19:14.694Z,1012.10
2017-07-06T00:24:10.484Z,1012.07
2017-07-06T00:29:06.068Z,1012.11
2017-07-06T00:34:02.233Z,1012.01
2017-07-06T00:38:57.994Z,1012.00
2017-07-06T00:43:54.768Z,1011.99
2017-07-06T00:48:50.289Z,1012.04
2017-07-06T00:53:46.133Z,1012.01
2017-07-06T00:58:43.013Z,1012.16
2017-07-06T01:03:38.774Z,1012.16
2017-07-06T01:08:34.550Z,1012.12
2017-07-06T01:13:31.524Z,1012.18
2017-07-06T01:18:27.787Z,1012.07
2017-07-06T01:23:24.666Z,1012.08
2017-07-06T01:28:20.256Z,1012.12
2017-07-06T01:33:15.890Z,1012.15
2017-07-06T01:38:12.812Z,1012.20
2017-07-06T01:43:09.354Z,1012.18
2017-07-06T01:48:04.801Z,1012.27
2017-07-06T01:53:01.508Z,1012.17
2017-07-06T01:57:58.369Z,1012.25
2017-07-06T02:02:54.607Z,1012.17
2017-07-06T02:07:51.480Z,1012.18
2017-07-06T02:12:47.226Z,1012.12
2017-07-06T02:17:42.885Z,1012.07
2017-07-06T02:22:38.926Z,1012.22
2017-07-06T02:27:34.589Z,1012.30
2017-07-06T02:32:30.881Z,1012.19
2017-07-06T02:37:26.739Z,1012.23
2017-07-06T02:42:22.769Z,1012.14
2017-07-06T02:47:18.473Z,1012.13
2017-07-06T02:52:14.205Z,1012.15
2017-07-06T02:57:10.264Z,1012.14
2017-07-06T03:02:06.116Z,1012.24
2017-07-06T03:07:03.030Z,1012.25
2017-07-06T03:11:58.533Z,1012.27
2017-07-06T03:16:55.394Z,1012.35
2017-07-06T03:21:52.063Z,1012.36
2017-07-06T03:26:47.610Z,1012.32
2017-07-06T03:31:43.498Z,1012.33
2017-07-06T03:36:39.312Z,1012.50
2017-07-06T03:41:36.205Z,1012.46
2017-07-06T03:46:32.119Z,1012.45
2017-07-06T03:51:28.915Z,1012.51
2017-07-06T03:56:24.843Z,1012.49
2017-07-06T04:01:20.708Z,1012.52
2017-07-06T04:06:17.779Z,1012.48
2017-07-06T04:11:15.427Z,1012.47
2017-07-06T04:16:10.848Z,1012.54
2017-07-06T04:21:07.547Z,1012.47
2017-07-06T04:26:03.390Z,1012.55
2017-07-06T04:30:59.094Z,1012.51
2017-07-06T04:35:55.086Z,1012.48
2017-07-06T04:40:50.980Z,1012.57
2017-07-06T04:45:46.781Z,1012.69
2017-07-06T04:50:45.021Z,1012.70
2017-07-06T04:55:40.268Z,1012.75
2017-07-06T05:00:36.332Z,1012.83
2017-07-06T05:05:32.978Z,1012.69
2017-07-06T05:10:29.018Z,1012.76
2017-07-06T05:15:26.570Z,1012.76
2017-07-06T05:20:22.341Z,1012.67
2017-07-06T05:25:18.585Z,1012.70
2017-07-06T05:30:14.835Z,1012.73
2017-07-06T05:35:12.393Z,1012.62
2017-07-06T05:40:09.157Z,1012.65
2017-07-06T05:45:05.431Z,1012.58
2017-07-06T05:50:01.685Z,1012.58
2017-07-06T05:54:57.202Z,1012.62
2017-07-06T05:59:53.392Z,1012.52
2017-07-06T06:04:48.793Z,1012.60
2017-07-06T06:09:44.072Z,1012.56
2017-07-06T06:14:39.438Z,1012.62
2017-07-06T06:19:35.058Z,1012.64
2017-07-06T06:24:31.995Z,1012.71
2017-07-06T06:29:27.597Z,1012.72
2017-07-06T06:34:23.449Z,1012.73
2017-07-06T06:39:19.831Z,1012.76
2017-07-06T06:44:15.847Z,1012.73
2017-07-06T06:49:11.805Z,1012.68
2017-07-06T06:54:08.046Z,1012.71
2017-07-06T06:59:04.063Z,1012.70
2017-07-06T07:03:59.795Z,1012.78
2017-07-06T07:08:55.649Z,1012.71
2017-07-06T07:13:51.701Z,1012.73
2017-07-06T07:18:49.120Z,1012.79
2017-07-06T07:23:45.486Z,1012.80
2017-07-06T07:28:41.103Z,1012.80
2017-07-06T07:33:37.889Z,1012.82
2017-07-06T07:38:33.716Z,1012.80
2017-07-06T07:43:30.315Z,1012.87
2017-07-06T07:48:27.368Z,1012.82
2017-07-06T07:53:23.611Z,1012.78
2017-07-06T07:58:23.085Z,1013.03
2017-07-06T08:03:22.078Z,1012.92
2017-07-06T08:08:19.591Z,1012.92
2017-07-06T08:13:17.421Z,1013.02
2017-07-06T08:18:15.026Z,1012.98
2017-07-06T08:23:13.616Z,1012.99
2017-07-06T08:28:10.561Z,1012.96
2017-07-06T08:33:07.776Z,1012.88
2017-07-06T08:38:03.973Z,1012.80
2017-07-06T08:42:59.940Z,1012.96
2017-07-06T08:47:56.187Z,1012.98
2017-07-06T08:52:52.244Z,1012.92
2017-07-06T08:57:49.086Z,1012.82
2017-07-06T09:02:44.816Z,1012.81
2017-07-06T09:07:40.599Z,1012.78
2017-07-06T09:12:37.719Z,1012.78
2017-07-06T09:17:34.299Z,1012.67
2017-07-06T09:22:30.422Z,1012.63
2017-07-06T09:27:28.038Z,1012.51
2017-07-06T09:32:23.914Z,1012.54
2017-07-06T09:37:19.788Z,1012.47
2017-07-06T09:42:16.280Z,1012.47
2017-07-06T09:47:12.003Z,1012.45
2017-07-06T09:52:07.606Z,1012.42
2017-07-06T09:57:04.239Z,1012.29
2017-07-06T10:02:02.763Z,1012.27
2017-07-06T10:06:59.995Z,1012.28
2017-07-06T10:11:56.242Z,1012.17
2017-07-06T10:16:51.930Z,1012.23
2017-07-06T10:21:48.633Z,1012.15
2017-07-06T10:26:44.055Z,1012.11
2017-07-06T10:31:39.899Z,1012.04
2017-07-06T10:36:36.326Z,1012.11
2017-07-06T10:41:32.553Z,1012.01
2017-07-06T10:46:27.359Z,1012.11
2017-07-06T10:51:25.019Z,1012.18
2017-07-06T10:56:21.888Z,1012.22
2017-07-06T11:01:18.778Z,1012.09
2017-07-06T11:06:15.733Z,1011.97
2017-07-06T11:11:12.760Z,1012.05
2017-07-06T11:16:09.528Z,1012.07
2017-07-06T11:21:06.107Z,1012.17
2017-07-06T11:26:03.511Z,1012.02
2017-07-06T11:31:03.056Z,1011.84
2017-07-06T11:35:58.636Z,1011.86
2017-07-06T11:40:54.557Z,1011.83
2017-07-06T11:45:51.090Z,1011.76
2017-07-06T11:50:47.243Z,1011.69
2017-07-06T11:55:43.714Z,1011.70
2017-07-06T12:00:40.961Z,1011.70
2017-07-06T12:05:38.065Z,1011.65
2017-07-06T12:10:35.071Z,1011.65
2017-07-06T12:15:30.535Z,1011.61
2017-07-06T12:20:26.625Z,1011.69
2017-07-06T12:25:23.828Z,1011.63
2017-07-06T12:30:19.384Z,1011.47
2017-07-06T12:35:15.142Z,1011.26
2017-07-06T12:40:10.745Z,1011.22
2017-07-06T12:45:07.606Z,1011.24
2017-07-06T12:50:03.690Z,1011.27
2017-07-06T12:54:59.702Z,1011.15
2017-07-06T12:59:55.266Z,1011.09
2017-07-06T13:04:50.843Z,1010.97
2017-07-06T13:09:47.583Z,1011.04
2017-07-06T13:14:42.865Z,1010.86
2017-07-06T13:19:38.300Z,1010.88
2017-07-06T13:24:35.480Z,1010.89
2017-07-06T13:29:30.833Z,1010.90
2017-07-06T13:34:25.885Z,1010.81
2017-07-06T13:39:21.519Z,1010.79
2017-07-06T13:44:18.357Z,1010.66
2017-07-06T13:49:13.775Z,1010.56
2017-07-06T13:54:09.388Z,1010.59
2017-07-06T13:59:04.853Z,1010.60
2017-07-06T14:04:01.201Z,1010.52
2017-07-06T14:08:56.657Z,1010.39
2017-07-06T14:13:51.997Z,1010.32
2017-07-06T14:18:48.635Z,1010.28
2017-07-06T14:23:44.124Z,1010.31
2017-07-06T14:33:39.918Z,1010.17
2017-07-06T14:38:35.577Z,1010.14
2017-07-06T14:43:32.857Z,1010.17
2017-07-06T14:48:28.491Z,1010.28
2017-07-06T14:53:24.514Z,1010.23
2017-07-06T14:58:20.790Z,1010.11
2017-07-06T15:03:17.723Z,1010.18
2017-07-06T15:08:13.837Z,1010.07
2017-07-06T15:13:09.842Z,1010.05
2017-07-06T15:18:05.858Z,1009.90
2017-07-06T15:23:01.811Z,1009.70
2017-07-06T15:27:57.619Z,1009.69
2017-07-06T15:32:53.343Z,1009.67
2017-07-06T15:37:49.146Z,1009.46
2017-07-06T15:42:45.968Z,1009.40
2017-07-06T15:47:41.697Z,1009.36
2017-07-06T15:52:37.868Z,1009.40
2017-07-06T15:57:33.822Z,1009.28
2017-07-06T16:02:30.103Z,1009.13
2017-07-06T16:07:26.637Z,1009.04
2017-07-06T16:12:22.815Z,1008.95
2017-07-06T16:17:19.172Z,1008.80
2017-07-06T16:22:15.896Z,1008.67
2017-07-06T16:27:11.877Z,1008.72
2017-07-06T16:32:07.858Z,1008.80
2017-07-06T16:37:03.943Z,1008.94
2017-07-06T16:41:59.905Z,1008.99
2017-07-06T16:46:55.633Z,1008.91
2017-07-06T16:51:51.911Z,1008.98
2017-07-06T16:56:47.751Z,1008.86
2017-07-06T17:01:43.512Z,1008.88
2017-07-06T17:06:39.251Z,1008.87
2017-07-06T17:11:34.928Z,1008.98
2017-07-06T17:16:30.700Z,1008.99
2017-07-06T17:21:26.652Z,1008.98
2017-07-06T17:26:23.489Z,1008.96
2017-07-06T17:31:19.883Z,1008.92
2017-07-06T17:36:15.614Z,1008.76
2017-07-06T17:41:11.601Z,1008.72
2017-07-06T17:46:07.371Z,1008.72
2017-07-06T17:51:03.384Z,1008.74
2017-07-06T17:55:59.371Z,1008.70
2017-07-06T18:00:56.337Z,1008.62
2017-07-06T18:05:51.968Z,1008.52
2017-07-06T18:10:47.887Z,1008.51
2017-07-06T18:15:43.915Z,1008.47
2017-07-06T18:20:40.912Z,1008.39
2017-07-06T18:25:37.561Z,1008.31
2017-07-06T18:30:33.220Z,1008.44
2017-07-06T18:35:29.014Z,1008.60
2017-07-06T18:40:25.697Z,1008.63
2017-07-06T18:45:21.603Z,1008.49
2017-07-06T18:50:18.628Z,1008.50
2017-07-06T18:55:14.312Z,1008.42
2017-07-06T19:00:11.148Z,1008.48
2017-07-06T19:05:07.372Z,1008.25
2017-07-06T19:10:04.243Z,1008.26
2017-07-06T19:15:00.068Z,1008.25
2017-07-06T19:19:55.793Z,1008.11
2017-07-06T19:24:51.892Z,1007.81
2017-07-06T19:29:48.905Z,1007.97
2017-07-06T19:34:44.644Z,1008.35
2017-07-06T19:39:40.464Z,1008.17
2017-07-06T19:44:36.385Z,1008.31
2017-07-06T19:49:32.187Z,1008.24
2017-07-06T19:54:29.741Z,1008.34
2017-07-06T19:59:25.139Z,1008.33
2017-07-06T20:04:21.139Z,1008.25
2017-07-06T20:09:18.317Z,1008.10
2017-07-06T20:14:14.140Z,1007.88
2017-07-06T20:19:09.866Z,1008.03
2017-07-06T20:24:05.677Z,1008.27
2017-07-06T20:29:02.700Z,1008.23
2017-07-06T20:33:58.194Z,1008.26
2017-07-06T20:38:55.050Z,1008.42
2017-07-06T20:43:51.038Z,1008.59
2017-07-06T20:48:48.223Z,1008.55
2017-07-06T20:53:44.708Z,1008.60
2017-07-06T20:58:41.328Z,1008.68
2017-07-06T21:03:36.879Z,1008.71
2017-07-06T21:08:33.829Z,1008.76
2017-07-06T21:13:30.086Z,1008.90
2017-07-06T21:18:26.065Z,1008.82
2017-07-06T21:23:23.153Z,1008.89
2017-07-06T21:28:19.775Z,1008.95
2017-07-06T21:33:15.708Z,1008.95
2017-07-06T21:38:11.748Z,1008.87
2017-07-06T21:43:08.906Z,1009.03
2017-07-06T21:48:04.322Z,1009.05
2017-07-06T21:53:00.141Z,1009.18
2017-07-06T21:57:56.927Z,1009.15
2017-07-06T22:02:52.288Z,1009.34
2017-07-06T22:07:48.061Z,1009.54
2017-07-06T22:12:44.090Z,1009.60
2017-07-06T22:17:39.800Z,1009.79
2017-07-06T22:22:35.556Z,1009.73
2017-07-06T22:27:31.669Z,1009.52
2017-07-06T22:32:27.436Z,1009.64
2017-07-06T22:37:23.223Z,1010.07
2017-07-06T22:42:18.939Z,1010.05
2017-07-06T22:47:15.948Z,1010.01
2017-07-06T22:52:11.484Z,1010.14
2017-07-06T22:57:07.542Z,1010.12
2017-07-06T23:02:03.510Z,1010.07
2017-07-06T23:06:59.423Z,1010.18
2017-07-06T23:11:55.062Z,1010.16
2017-07-06T23:16:50.941Z,1009.95
2017-07-06T23:21:46.867Z,1009.68
2017-07-06T23:26:43.032Z,1009.30
2017-07-06T23:31:38.804Z,1008.96
2017-07-06T23:36:34.633Z,1008.65
2017-07-06T23:41:30.475Z,1008.29
2017-07-06T23:46:27.301Z,1008.11
2017-07-06T23:51:23.877Z,1008.00
2017-07-06T23:56:19.506Z,1008.02
